Impacts TAF Board INFO
FOR SITUATIONAL AWARENESS. NOT TO BE USED FOR FLIGHT PLANNING PURPOSES.
IDs:

KPHX - Phoenix/Sky Harbor, AZ, US

Issued at 0910 UTC 20 Jan 2018
Updated at 0912 UTC 20 Jan 2018
Potential Impact None Slight Moderate High
Time0851Z 20/10Z 20/11Z 20/12Z 20/13Z 20/14Z 20/15Z 20/16Z 20/17Z 20/18Z 20/19Z 20/20Z 20/21Z 20/22Z>>
Type OBS PRVL PRVL PRVL PRVL
  [TEMP]  
PRVL
  [TEMP]  
PRVL PRVL
  [TEMP]  
PRVL
  [TEMP]  
PRVL
  [TEMP]  
PRVL
  [TEMP]  
PRVL PRVL PRVL
VIS 10 >6 >6 >6 >6 >6 >6 >6 >6 >6 >6 >6 >6 >6
CIG -- -- -- -- --
  [--]  
--
  [--]  
80 80
  [60]  
80
  [60]  
80
  [60]  
80
  [60]  
80 80 80
Cover CLR SCT SCT SCT SCT
  [SCT]  
SCT
  [SCT]  
OVC OVC
  [BKN]  
OVC
  [BKN]  
OVC
  [BKN]  
OVC
  [BKN]  
OVC OVC OVC
FltCat VFR VFR VFR VFR VFR
  [VFR]  
VFR
  [VFR]  
VFR VFR
  [VFR]  
VFR
  [VFR]  
VFR
  [VFR]  
VFR
  [VFR]  
VFR VFR VFR
WX -- -- -- -- --
  [--]  
--
  [--]  
VCSH VCSH
  [-SHRA]  
VCSH
  [-SHRA]  
VCSH
  [-SHRA]  
VCSH
  [-SHRA]  
VCSH VCSH VCSH
WDir 90 110 110 110 110
[180]
110
[180]
240 240
[240]
240
[240]
240
[240]
240
[240]
240 240 240
WSpd 7 5 5 5 5
  [10]  
5
  [10]  
10 10
  [10]  
10
  [10]  
10
  [10]  
10
  [10]  
10 10 10
WGst -- -- -- -- --
  [--]  
--
  [--]  
17 17
  [17]  
17
  [17]  
17
  [17]  
17
  [17]  
17 17 17

Raw TAF
KPHX 200910Z 2009/2112 11005KT P6SM SCT250
  TEMPO 2013/2015 18010KT
  FM201500 24010G17KT P6SM VCSH FEW040 BKN080 OVC120
  TEMPO 2016/2020 -SHRA BKN060
  FM202300 28014G24KT P6SM VCSH FEW050 BKN100
  FM210100 25007KT P6SM VCSH SCT050 OVC090


Raw METAR
KPHX 200851Z 09007KT 10SM CLR 13/M02 A2982 RMK AO2 SLP088 T01281017 56007
KPHX 200751Z 09008KT 10SM CLR 13/00 A2982 RMK AO2 SLP088 T01330000
KPHX 200651Z 10009KT 10SM CLR 15/M01 A2983 RMK AO2 SLP092 T01501011 402500089

METAR Board
Radar Display
Forecast Discussion

FOR SITUATIONAL AWARENESS. NOT TO BE USED FOR FLIGHT PLANNING PURPOSES.